createdAt,value
2023-03-28T00:02:10.485Z,23.24
2023-03-28T00:04:37.779Z,23.23
2023-03-28T00:07:05.684Z,23.23
2023-03-28T00:09:33.144Z,23.26
2023-03-28T00:11:59.977Z,23.27
2023-03-28T00:14:26.962Z,23.21
2023-03-28T00:16:55.098Z,23.22
2023-03-28T00:19:21.921Z,23.23
2023-03-28T00:21:51.125Z,23.19
2023-03-28T00:24:21.539Z,23.23
2023-03-28T00:26:54.653Z,23.20
2023-03-28T00:29:22.661Z,23.19
2023-03-28T00:31:50.323Z,23.20
2023-03-28T00:34:18.693Z,23.18
2023-03-28T00:36:45.520Z,23.17
2023-03-28T00:39:13.546Z,23.18
2023-03-28T00:41:43.505Z,23.14
2023-03-28T00:44:45.790Z,23.13
2023-03-28T00:47:20.678Z,23.14
2023-03-28T00:49:50.226Z,23.13
2023-03-28T00:52:17.972Z,23.10
2023-03-28T00:54:46.336Z,23.10
2023-03-28T00:57:16.555Z,23.10
2023-03-28T00:59:44.149Z,23.10
2023-03-28T01:02:11.722Z,23.11
2023-03-28T01:04:49.509Z,23.08
2023-03-28T01:07:21.566Z,23.05
2023-03-28T01:09:49.411Z,23.03
2023-03-28T01:12:19.443Z,23.03
2023-03-28T01:14:47.804Z,23.04
2023-03-28T01:17:16.119Z,23.00
2023-03-28T01:19:59.117Z,23.03
2023-03-28T01:23:10.782Z,23.02
2023-03-28T01:26:21.602Z,23.01
2023-03-28T01:29:11.437Z,22.98
2023-03-28T01:31:59.698Z,22.97
2023-03-28T01:35:36.590Z,23.00
2023-03-28T01:38:14.303Z,23.00
2023-03-28T01:40:50.218Z,22.97
2023-03-28T01:43:30.730Z,22.94
2023-03-28T01:46:05.633Z,22.94
2023-03-28T01:48:45.896Z,22.94
2023-03-28T01:51:24.573Z,22.97
2023-03-28T01:53:58.389Z,22.99
2023-03-28T01:56:31.687Z,22.99
2023-03-28T01:59:07.810Z,22.99
2023-03-28T02:02:04.248Z,22.97
2023-03-28T02:04:33.781Z,22.96
2023-03-28T02:07:02.051Z,22.96
2023-03-28T02:09:38.109Z,22.95
2023-03-28T02:12:25.073Z,22.95
2023-03-28T02:15:09.006Z,22.94
2023-03-28T02:18:00.552Z,22.93
2023-03-28T02:20:53.107Z,22.92
2023-03-28T02:23:43.324Z,22.87
2023-03-28T02:26:42.073Z,22.88
2023-03-28T02:29:28.503Z,22.84
2023-03-28T02:32:11.595Z,22.83
2023-03-28T02:34:40.665Z,22.83
2023-03-28T02:37:16.338Z,22.83
2023-03-28T02:39:57.684Z,22.83
2023-03-28T02:42:54.982Z,22.84
2023-03-28T02:45:40.916Z,22.79
2023-03-28T02:48:21.324Z,22.80
2023-03-28T02:51:00.032Z,22.79
2023-03-28T02:53:33.646Z,22.78
2023-03-28T02:56:06.114Z,22.77
2023-03-28T02:58:56.086Z,22.77
2023-03-28T03:01:25.495Z,22.78
2023-03-28T03:03:52.821Z,22.72
2023-03-28T03:06:20.004Z,22.71
2023-03-28T03:08:47.180Z,22.71
2023-03-28T03:11:14.043Z,22.74
2023-03-28T03:13:42.291Z,22.72
2023-03-28T03:16:10.812Z,22.75
2023-03-28T03:18:37.810Z,22.75
2023-03-28T03:21:05.348Z,22.75
2023-03-28T03:23:32.245Z,22.74
2023-03-28T03:26:00.601Z,22.75
2023-03-28T03:28:34.351Z,22.73
2023-03-28T03:31:04.052Z,22.71
2023-03-28T03:33:55.589Z,22.73
2023-03-28T03:36:30.487Z,22.70
2023-03-28T03:38:59.013Z,22.71
2023-03-28T03:41:26.386Z,22.69
2023-03-28T03:43:53.913Z,22.67
2023-03-28T03:46:22.248Z,22.67
2023-03-28T03:48:50.509Z,22.68
2023-03-28T03:51:19.530Z,22.67
2023-03-28T03:53:50.814Z,22.68
2023-03-28T03:56:21.238Z,22.66
2023-03-28T03:58:57.296Z,22.65
2023-03-28T04:01:30.265Z,22.65
2023-03-28T04:04:09.237Z,22.63
2023-03-28T04:06:59.030Z,22.62
2023-03-28T04:09:27.322Z,22.63
2023-03-28T04:11:59.267Z,22.62
2023-03-28T04:14:26.641Z,22.62
2023-03-28T04:17:09.767Z,22.62
2023-03-28T04:19:40.667Z,22.61
2023-03-28T04:22:09.277Z,22.61
2023-03-28T04:24:37.576Z,22.59
2023-03-28T04:27:34.240Z,22.57
2023-03-28T04:30:01.837Z,22.59
2023-03-28T04:32:50.466Z,22.56
2023-03-28T04:35:24.290Z,22.56
2023-03-28T04:37:53.796Z,22.56
2023-03-28T04:40:21.761Z,22.57
2023-03-28T04:42:59.062Z,22.56
2023-03-28T04:45:33.934Z,22.54
2023-03-28T04:48:11.408Z,22.56
2023-03-28T04:50:39.171Z,22.59
2023-03-28T04:53:07.468Z,22.59
2023-03-28T04:55:35.439Z,22.63
2023-03-28T04:58:16.089Z,22.67
2023-03-28T05:00:44.292Z,22.73
2023-03-28T05:03:46.303Z,22.75
2023-03-28T05:06:13.177Z,22.79
2023-03-28T05:08:41.536Z,22.85
2023-03-28T05:11:08.639Z,22.91
2023-03-28T05:13:36.725Z,22.96
2023-03-28T05:16:19.715Z,23.03
2023-03-28T05:19:22.860Z,23.11
2023-03-28T05:22:15.688Z,23.16
2023-03-28T05:24:44.608Z,23.22
2023-03-28T05:27:20.120Z,23.27
2023-03-28T05:29:47.969Z,23.32
2023-03-28T05:32:14.950Z,23.37
2023-03-28T05:34:41.963Z,23.41
2023-03-28T05:37:10.453Z,23.46
2023-03-28T05:39:46.022Z,23.48
2023-03-28T05:42:13.221Z,23.51
2023-03-28T05:44:40.623Z,23.52
2023-03-28T05:47:26.200Z,23.51
2023-03-28T05:49:54.927Z,23.51
2023-03-28T05:52:22.277Z,23.56
2023-03-28T05:54:51.928Z,23.56
2023-03-28T05:57:21.533Z,23.55
2023-03-28T05:59:49.412Z,23.52
2023-03-28T06:04:47.631Z,23.53
2023-03-28T06:07:14.718Z,23.53
2023-03-28T06:09:42.164Z,23.51
2023-03-28T06:12:11.845Z,23.52
2023-03-28T06:14:44.379Z,23.49
2023-03-28T06:17:22.097Z,23.48
2023-03-28T06:19:51.996Z,23.47
2023-03-28T06:22:20.025Z,23.45
2023-03-28T06:24:52.582Z,23.43
2023-03-28T06:27:27.291Z,23.42
2023-03-28T06:29:55.165Z,23.39
2023-03-28T06:32:22.292Z,23.38
2023-03-28T06:34:49.222Z,23.38
2023-03-28T06:37:16.118Z,23.36
2023-03-28T06:39:56.984Z,23.33
2023-03-28T06:42:23.922Z,23.32
2023-03-28T06:44:59.432Z,23.28
2023-03-28T06:47:31.754Z,23.28
2023-03-28T06:49:58.584Z,23.26
2023-03-28T06:52:33.176Z,23.25
2023-03-28T06:55:01.592Z,23.20
2023-03-28T06:57:28.408Z,23.18
2023-03-28T07:00:09.981Z,23.16
2023-03-28T07:02:56.823Z,23.14
2023-03-28T07:05:23.781Z,23.12
2023-03-28T07:07:50.854Z,23.11
2023-03-28T07:10:17.828Z,23.12
2023-03-28T07:12:44.914Z,23.15
2023-03-28T07:15:13.428Z,23.16
2023-03-28T07:17:40.468Z,23.15
2023-03-28T07:20:08.150Z,23.15
2023-03-28T07:22:35.479Z,23.16
2023-03-28T07:25:02.327Z,23.17
2023-03-28T07:27:29.273Z,23.16
2023-03-28T07:29:56.104Z,23.14
2023-03-28T07:32:24.311Z,23.12
2023-03-28T07:34:51.391Z,23.11
2023-03-28T07:37:22.676Z,23.11
2023-03-28T07:39:57.216Z,23.09
2023-03-28T07:42:27.031Z,23.11
2023-03-28T07:44:55.078Z,23.11
2023-03-28T07:47:22.411Z,23.10
2023-03-28T07:49:51.231Z,23.11
2023-03-28T07:52:18.219Z,23.12
2023-03-28T07:54:45.120Z,23.11
2023-03-28T07:57:12.058Z,23.05
2023-03-28T07:59:57.973Z,22.99
2023-03-28T08:02:25.761Z,22.93
2023-03-28T08:04:54.144Z,22.93
2023-03-28T08:07:25.757Z,22.93
2023-03-28T08:09:55.224Z,22.92
2023-03-28T08:12:26.618Z,22.88
2023-03-28T08:14:53.628Z,22.88
2023-03-28T08:17:23.944Z,22.89
2023-03-28T08:19:52.237Z,22.85
2023-03-28T08:22:29.058Z,22.83
2023-03-28T08:25:15.958Z,22.81
2023-03-28T08:27:43.937Z,22.80
2023-03-28T08:30:12.738Z,22.79
2023-03-28T08:32:49.654Z,22.79
2023-03-28T08:35:16.744Z,22.75
2023-03-28T08:37:45.792Z,22.75
2023-03-28T08:40:16.258Z,22.74
2023-03-28T08:42:57.116Z,22.74
2023-03-28T08:45:41.004Z,22.72
2023-03-28T08:48:17.981Z,22.70
2023-03-28T08:50:50.027Z,22.69
2023-03-28T08:53:26.767Z,22.68
2023-03-28T08:55:54.999Z,22.67
2023-03-28T08:58:23.566Z,22.67
2023-03-28T09:00:52.133Z,22.67
2023-03-28T09:03:21.830Z,22.67
2023-03-28T09:05:58.449Z,22.65
2023-03-28T09:08:49.866Z,22.63
2023-03-28T09:11:32.229Z,22.63
2023-03-28T09:14:05.571Z,22.62
2023-03-28T09:16:43.722Z,22.59
2023-03-28T09:19:51.857Z,22.58
2023-03-28T09:23:13.763Z,22.54
2023-03-28T09:26:06.055Z,22.49
2023-03-28T09:28:41.800Z,22.50
2023-03-28T09:31:13.249Z,22.53
2023-03-28T09:33:43.192Z,22.53
2023-03-28T09:36:19.232Z,22.53
2023-03-28T09:38:51.200Z,22.52
2023-03-28T09:41:26.753Z,22.55
2023-03-28T09:44:15.008Z,22.56
2023-03-28T09:47:06.327Z,22.58
2023-03-28T09:49:41.719Z,22.58
2023-03-28T09:52:16.282Z,22.59
2023-03-28T09:54:43.517Z,22.60
2023-03-28T09:57:11.981Z,22.61
2023-03-28T09:59:47.787Z,22.61
2023-03-28T10:02:28.559Z,22.64
2023-03-28T10:04:58.388Z,22.70
2023-03-28T10:07:32.423Z,22.77
2023-03-28T10:10:21.838Z,22.84
2023-03-28T10:13:02.239Z,22.88
2023-03-28T10:15:33.272Z,22.91
2023-03-28T10:18:31.299Z,22.92
2023-03-28T10:21:26.581Z,22.92
2023-03-28T10:24:16.590Z,22.93
2023-03-28T10:26:49.957Z,22.93
2023-03-28T10:29:18.424Z,22.95
2023-03-28T10:31:49.180Z,22.97
2023-03-28T10:34:39.038Z,22.94
2023-03-28T10:37:27.280Z,22.95
2023-03-28T10:40:26.379Z,22.92
2023-03-28T10:43:13.466Z,22.90
2023-03-28T10:46:01.220Z,22.93
2023-03-28T10:48:41.757Z,22.93
2023-03-28T10:51:18.659Z,22.94
2023-03-28T10:54:09.338Z,22.94
2023-03-28T10:56:41.576Z,22.93
2023-03-28T10:59:33.611Z,22.94
2023-03-28T11:02:23.705Z,22.93
2023-03-28T11:04:56.888Z,22.91
2023-03-28T11:07:33.208Z,22.91
2023-03-28T11:10:24.011Z,22.91
2023-03-28T11:13:26.549Z,22.89
2023-03-28T11:15:59.292Z,22.89
2023-03-28T11:18:47.008Z,22.89
2023-03-28T11:21:28.343Z,22.91
2023-03-28T11:24:09.253Z,22.88
2023-03-28T11:27:04.978Z,22.91
2023-03-28T11:30:02.358Z,22.91
2023-03-28T11:32:41.598Z,22.90
2023-03-28T11:35:17.759Z,22.91
2023-03-28T11:37:55.259Z,22.90
2023-03-28T11:40:28.206Z,22.91
2023-03-28T11:43:05.290Z,22.89
2023-03-28T11:45:50.281Z,22.89
2023-03-28T11:48:26.396Z,22.91
2023-03-28T11:51:02.802Z,22.92
2023-03-28T11:53:53.829Z,22.92
2023-03-28T11:56:29.703Z,22.92
2023-03-28T11:59:07.614Z,22.89
2023-03-28T12:01:41.597Z,22.90
2023-03-28T12:04:14.632Z,22.88
2023-03-28T12:06:59.567Z,22.91
2023-03-28T12:09:36.575Z,22.93
2023-03-28T12:12:11.722Z,22.90
2023-03-28T12:14:51.004Z,22.87
2023-03-28T12:17:44.646Z,22.96
2023-03-28T12:20:15.839Z,22.99
2023-03-28T12:22:50.472Z,23.04
2023-03-28T12:25:31.325Z,23.03
2023-03-28T12:28:10.250Z,23.03
2023-03-28T12:30:43.067Z,23.05
2023-03-28T12:33:21.441Z,23.05
2023-03-28T12:36:07.656Z,23.05
2023-03-28T12:38:40.505Z,23.03
2023-03-28T12:41:25.563Z,23.05
2023-03-28T12:43:58.229Z,23.06
2023-03-28T12:46:38.427Z,23.08
2023-03-28T12:49:12.394Z,23.10
2023-03-28T12:51:46.620Z,23.12
2023-03-28T12:54:26.487Z,23.11
2023-03-28T12:57:10.982Z,23.11
2023-03-28T13:00:14.896Z,23.13
2023-03-28T13:03:18.339Z,23.13
2023-03-28T13:05:49.876Z,23.15
2023-03-28T13:08:24.350Z,23.15
2023-03-28T13:11:07.832Z,23.14
2023-03-28T13:13:44.889Z,23.12
2023-03-28T13:16:15.374Z,23.15
2023-03-28T13:19:03.625Z,23.21
2023-03-28T13:21:45.052Z,23.26
2023-03-28T13:24:30.842Z,23.31
2023-03-28T13:27:00.775Z,23.34
2023-03-28T13:29:44.891Z,23.38
2023-03-28T13:32:14.838Z,23.39
2023-03-28T13:34:47.982Z,23.42
2023-03-28T13:37:23.096Z,23.45
2023-03-28T13:39:51.547Z,23.46
2023-03-28T13:42:31.858Z,23.48
2023-03-28T13:45:03.434Z,23.49
2023-03-28T13:47:34.677Z,23.48
2023-03-28T13:50:08.401Z,23.49
2023-03-28T13:52:35.590Z,23.50
2023-03-28T13:55:14.809Z,23.48
2023-03-28T13:57:43.614Z,23.48
2023-03-28T14:00:16.442Z,23.47
2023-03-28T14:02:46.006Z,23.48
2023-03-28T14:05:19.706Z,23.47
2023-03-28T14:07:47.093Z,23.46
2023-03-28T14:10:21.944Z,23.44
2023-03-28T14:12:53.034Z,23.45
2023-03-28T14:15:24.530Z,23.43
2023-03-28T14:17:51.678Z,23.43
2023-03-28T14:20:19.010Z,23.39
2023-03-28T14:22:59.966Z,23.38
2023-03-28T14:25:28.628Z,23.38
2023-03-28T14:27:57.366Z,23.36
2023-03-28T14:30:26.614Z,23.35
2023-03-28T14:32:58.999Z,23.36
2023-03-28T14:35:28.245Z,23.37
2023-03-28T14:37:57.400Z,23.37
2023-03-28T14:40:31.646Z,23.37
2023-03-28T14:43:04.211Z,23.36
2023-03-28T14:45:34.011Z,23.36
2023-03-28T14:48:01.121Z,23.34
2023-03-28T14:50:33.012Z,23.35
2023-03-28T14:53:05.797Z,23.35
2023-03-28T14:55:33.885Z,23.34
2023-03-28T14:58:04.879Z,23.32
2023-03-28T15:00:37.684Z,23.33
2023-03-28T15:03:06.972Z,23.32
2023-03-28T15:05:35.195Z,23.31
2023-03-28T15:08:03.139Z,23.32
2023-03-28T15:10:31.043Z,23.31
2023-03-28T15:13:05.438Z,23.31
2023-03-28T15:15:35.730Z,23.31
2023-03-28T15:18:06.771Z,23.30
2023-03-28T15:20:35.858Z,23.31
2023-03-28T15:23:05.783Z,23.30
2023-03-28T15:25:34.482Z,23.30
2023-03-28T15:28:06.667Z,23.30
2023-03-28T15:30:36.145Z,23.29
2023-03-28T15:33:05.408Z,23.28
2023-03-28T15:35:38.309Z,23.28
2023-03-28T15:38:08.062Z,23.27
2023-03-28T15:40:40.328Z,23.28
2023-03-28T15:43:27.865Z,23.26
2023-03-28T15:45:56.978Z,23.29
2023-03-28T15:48:25.248Z,23.34
2023-03-28T15:50:53.607Z,23.38
2023-03-28T15:53:25.956Z,23.42
2023-03-28T15:55:52.937Z,23.44
2023-03-28T15:58:23.278Z,23.47
2023-03-28T16:00:52.787Z,23.51
2023-03-28T16:03:32.880Z,23.58
2023-03-28T16:06:23.069Z,23.63
2023-03-28T16:09:15.585Z,23.69
2023-03-28T16:11:43.036Z,23.74
2023-03-28T16:14:31.528Z,23.80
2023-03-28T16:17:22.334Z,23.88
2023-03-28T16:19:57.848Z,23.94
2023-03-28T16:22:25.667Z,24.00
2023-03-28T16:24:53.657Z,24.05
2023-03-28T16:27:22.044Z,24.10
2023-03-28T16:29:50.469Z,24.15
2023-03-28T16:32:17.361Z,24.22
2023-03-28T16:34:44.808Z,24.26
2023-03-28T16:37:11.644Z,24.28
2023-03-28T16:39:38.728Z,24.33
2023-03-28T16:42:06.203Z,24.37
2023-03-28T16:44:33.508Z,24.44
2023-03-28T16:47:03.055Z,24.49
2023-03-28T16:49:30.322Z,24.52
2023-03-28T16:51:57.229Z,24.56
2023-03-28T16:54:24.574Z,24.59
2023-03-28T16:56:51.967Z,24.61
2023-03-28T16:59:20.243Z,24.61
2023-03-28T17:01:47.723Z,24.65
2023-03-28T17:04:16.179Z,24.69
2023-03-28T17:06:43.072Z,24.70
2023-03-28T17:09:10.484Z,24.73
2023-03-28T17:11:37.388Z,24.74
2023-03-28T17:14:04.288Z,24.79
2023-03-28T17:16:31.520Z,24.80
2023-03-28T17:18:58.509Z,24.82
2023-03-28T17:21:26.853Z,24.83
2023-03-28T17:23:55.379Z,24.85
2023-03-28T17:26:22.211Z,24.86
2023-03-28T17:28:50.898Z,24.83
2023-03-28T17:31:20.006Z,24.85
2023-03-28T17:33:47.625Z,24.89
2023-03-28T17:36:21.543Z,24.92
2023-03-28T17:38:51.833Z,24.91
2023-03-28T17:41:19.522Z,24.92
2023-03-28T17:43:46.757Z,24.94
2023-03-28T17:46:13.712Z,24.95
2023-03-28T17:48:41.349Z,24.95
2023-03-28T17:51:10.150Z,24.95
2023-03-28T17:53:39.942Z,24.96
2023-03-28T17:56:08.877Z,24.93
2023-03-28T17:58:36.574Z,24.93
2023-03-28T18:01:04.233Z,24.94
2023-03-28T18:03:31.215Z,24.96
2023-03-28T18:06:15.071Z,24.97
2023-03-28T18:08:44.784Z,24.98
2023-03-28T18:11:15.657Z,24.97
2023-03-28T18:13:42.930Z,25.00
2023-03-28T18:16:13.376Z,25.00
2023-03-28T18:18:41.213Z,25.01
2023-03-28T18:21:08.556Z,25.00
2023-03-28T18:23:36.034Z,25.01
2023-03-28T18:26:03.154Z,24.99
2023-03-28T18:28:31.870Z,24.97
2023-03-28T18:31:06.682Z,24.96
2023-03-28T18:33:35.386Z,24.96
2023-03-28T18:36:02.463Z,24.96
2023-03-28T18:38:29.502Z,24.96
2023-03-28T18:40:56.434Z,24.96
2023-03-28T18:43:23.325Z,24.96
2023-03-28T18:45:55.107Z,24.94
2023-03-28T18:48:22.752Z,24.94
2023-03-28T18:50:49.703Z,24.92
2023-03-28T18:53:17.068Z,24.90
2023-03-28T18:55:43.869Z,24.91
2023-03-28T18:58:11.495Z,24.95
2023-03-28T19:00:38.745Z,24.97
2023-03-28T19:03:09.341Z,24.95
2023-03-28T19:05:37.238Z,24.96
2023-03-28T19:08:04.312Z,24.96
2023-03-28T19:10:31.469Z,24.95
2023-03-28T19:12:58.375Z,24.95
2023-03-28T19:15:25.761Z,24.94
2023-03-28T19:17:52.656Z,24.91
2023-03-28T19:20:20.832Z,24.91
2023-03-28T19:22:48.202Z,24.92
2023-03-28T19:25:16.162Z,24.90
2023-03-28T19:27:43.727Z,24.91
2023-03-28T19:30:11.204Z,24.89
2023-03-28T19:32:38.097Z,24.90
2023-03-28T19:35:05.942Z,24.90
2023-03-28T19:37:34.183Z,24.88
2023-03-28T19:40:01.338Z,24.87
2023-03-28T19:42:28.266Z,24.84
2023-03-28T19:44:55.245Z,24.82
2023-03-28T19:47:22.011Z,24.80
2023-03-28T19:49:49.324Z,24.83
2023-03-28T19:52:16.323Z,24.79
2023-03-28T19:54:44.628Z,24.79
2023-03-28T19:57:11.504Z,24.79
2023-03-28T19:59:41.398Z,24.77
2023-03-28T20:02:10.379Z,24.75
2023-03-28T20:04:37.225Z,24.72
2023-03-28T20:07:04.249Z,24.68
2023-03-28T20:09:32.509Z,24.67
2023-03-28T20:12:01.857Z,24.64
2023-03-28T20:14:28.667Z,24.62
2023-03-28T20:16:55.549Z,24.59
2023-03-28T20:19:23.163Z,24.57
2023-03-28T20:21:49.976Z,24.55
2023-03-28T20:24:18.157Z,24.52
2023-03-28T20:26:45.200Z,24.48
2023-03-28T20:29:13.836Z,24.46
2023-03-28T20:31:40.946Z,24.45
2023-03-28T20:34:07.997Z,24.46
2023-03-28T20:36:34.879Z,24.48
2023-03-28T20:39:02.522Z,24.47
2023-03-28T20:41:29.984Z,24.45
2023-03-28T20:44:03.229Z,24.43
2023-03-28T20:46:34.431Z,24.41
2023-03-28T20:49:01.449Z,24.38
2023-03-28T20:51:29.662Z,24.35
2023-03-28T20:53:58.649Z,24.33
2023-03-28T20:56:27.425Z,24.33
2023-03-28T20:58:54.872Z,24.30
2023-03-28T21:01:26.584Z,24.29
2023-03-28T21:03:56.781Z,24.26
2023-03-28T21:06:26.042Z,24.24
2023-03-28T21:08:54.311Z,24.21
2023-03-28T21:11:23.626Z,24.17
2023-03-28T21:13:50.907Z,24.15
2023-03-28T21:16:18.624Z,24.12
2023-03-28T21:18:46.796Z,24.09
2023-03-28T21:21:17.114Z,24.07
2023-03-28T21:23:45.079Z,24.03
2023-03-28T21:26:14.829Z,24.02
2023-03-28T21:28:41.684Z,24.03
2023-03-28T21:31:10.818Z,24.01
2023-03-28T21:33:38.405Z,24.00
2023-03-28T21:36:07.211Z,23.98
2023-03-28T21:38:36.090Z,23.97
2023-03-28T21:41:03.722Z,23.94
2023-03-28T21:43:30.812Z,23.94
2023-03-28T21:45:57.865Z,23.92
2023-03-28T21:48:24.858Z,23.90
2023-03-28T21:50:53.790Z,23.86
2023-03-28T21:53:21.789Z,23.86
2023-03-28T21:55:51.103Z,23.86
2023-03-28T21:58:18.088Z,23.82
2023-03-28T22:00:44.972Z,23.82
2023-03-28T22:03:12.131Z,23.82
2023-03-28T22:05:42.651Z,23.78
2023-03-28T22:08:12.165Z,23.74
2023-03-28T22:10:45.760Z,23.70
2023-03-28T22:13:14.558Z,23.68
2023-03-28T22:15:41.715Z,23.67
2023-03-28T22:18:12.077Z,23.63
2023-03-28T22:20:40.826Z,23.61
2023-03-28T22:23:08.974Z,23.62
2023-03-28T22:25:38.248Z,23.59
2023-03-28T22:28:07.301Z,23.57
2023-03-28T22:30:37.034Z,23.56
2023-03-28T22:33:04.264Z,23.55
2023-03-28T22:35:31.280Z,23.56
2023-03-28T22:37:58.199Z,23.56
2023-03-28T22:40:25.180Z,23.52
2023-03-28T22:42:54.135Z,23.50
2023-03-28T22:45:21.359Z,23.47
2023-03-28T22:47:50.217Z,23.44
2023-03-28T22:50:18.437Z,23.42
2023-03-28T22:52:46.165Z,23.41
2023-03-28T22:55:13.442Z,23.42
2023-03-28T22:57:41.978Z,23.38
2023-03-28T23:00:11.291Z,23.37
2023-03-28T23:02:38.378Z,23.34
2023-03-28T23:05:08.075Z,23.33
2023-03-28T23:07:36.237Z,23.31
2023-03-28T23:10:04.607Z,23.31
2023-03-28T23:12:31.744Z,23.29
2023-03-28T23:14:58.564Z,23.27
2023-03-28T23:17:26.361Z,23.26
2023-03-28T23:19:54.322Z,23.25
2023-03-28T23:22:23.636Z,23.25
2023-03-28T23:24:50.738Z,23.23
2023-03-28T23:27:18.122Z,23.22
2023-03-28T23:29:45.280Z,23.20
2023-03-28T23:32:12.135Z,23.20
2023-03-28T23:34:39.170Z,23.17
2023-03-28T23:37:07.125Z,23.17
2023-03-28T23:39:35.316Z,23.18
2023-03-28T23:42:02.209Z,23.14
2023-03-28T23:44:30.767Z,23.15
2023-03-28T23:46:57.664Z,23.11
2023-03-28T23:49:24.561Z,23.14
2023-03-28T23:51:51.446Z,23.14
2023-03-28T23:54:18.693Z,23.12
2023-03-28T23:56:47.402Z,23.12
2023-03-28T23:59:14.338Z,23.11
